Check out our new PWSWeather beta!
PWSweather.com
Personal Weather Stations
Station Observations
WX18385
Broadalbin, NY

Broadalbin, NY

Lat: 43.081, Lon: -74.123

Elevation: -10000

Station Type:

High Low Average
Temperature 36.3°F2.4°C 15.8°F-9.0°C 29.2°F-1.6°C
Dew Point 32.3°F0.2°C 8.7°F-12.9°C 24.1°F-4.4°C
Winds 15.0 mph 24.1 kmh Calm Calm 4.0 mph S6.4 kmh S
Wind Gusts 17.0 mph27.4 kmh -- 6.0 mph9.7 kmh
Humidity 97% 67% 82%
Pressure 30.31 in1026.4 mb 29.83 in1010.2 mb -
Precipitation 0.19 in4.8 mm - -
Hour Temp Dew Point Humidity Winds Wind Gusts Pressure Precip Precip Rate Daily Precip Total
12:00 AM 29.8°F-1.2°C 27.5°F-2.5°C 91% Calm Calm 1.0 mph1.6 kmh 30.05 in1017.6 mb 0.00 in0.0 mm 0.00 in0.0 mm 0.00 in0.0 mm
12:05 AM 30.0°F-1.1°C 27.7°F-2.4°C 91% Calm Calm -- 30.06 in1017.9 mb 0.00 in0.0 mm 0.00 in0.0 mm 0.00 in0.0 mm
12:10 AM 30.0°F-1.1°C 27.7°F-2.4°C 91% Calm Calm -- 30.06 in1017.9 mb 0.00 in0.0 mm 0.00 in0.0 mm 0.00 in0.0 mm
12:15 AM 30.0°F-1.1°C 27.7°F-2.4°C 91% Calm Calm -- 30.05 in1017.6 mb 0.00 in0.0 mm 0.00 in0.0 mm 0.00 in0.0 mm
12:20 AM 30.0°F-1.1°C 27.2°F-2.7°C 89% 1.0 mph W1.6 kmh W 1.0 mph1.6 kmh 30.06 in1017.9 mb 0.00 in0.0 mm 0.00 in0.0 mm 0.00 in0.0 mm
12:25 AM 30.0°F-1.1°C 27.7°F-2.4°C 91% Calm Calm 2.0 mph3.2 kmh 30.05 in1017.6 mb 0.00 in0.0 mm 0.00 in0.0 mm 0.00 in0.0 mm
12:30 AM 30.0°F-1.1°C 28.0°F-2.2°C 92% Calm Calm -- 30.05 in1017.6 mb 0.00 in0.0 mm 0.00 in0.0 mm 0.00 in0.0 mm
12:35 AM 30.0°F-1.1°C 28.0°F-2.2°C 92% Calm Calm -- 30.04 in1017.3 mb 0.00 in0.0 mm 0.00 in0.0 mm 0.00 in0.0 mm
12:40 AM 30.0°F-1.1°C 28.0°F-2.2°C 92% 1.0 mph SSE1.6 kmh SSE 2.0 mph3.2 kmh 30.04 in1017.3 mb 0.00 in0.0 mm 0.00 in0.0 mm 0.00 in0.0 mm
12:45 AM 30.2°F-1.0°C 27.9°F-2.3°C 91% Calm Calm -- 30.04 in1017.3 mb 0.00 in0.0 mm 0.00 in0.0 mm 0.00 in0.0 mm
12:50 AM 30.2°F-1.0°C 27.6°F-2.4°C 90% Calm Calm -- 30.03 in1016.9 mb 0.00 in0.0 mm 0.00 in0.0 mm 0.00 in0.0 mm
12:55 AM 30.4°F-0.9°C 27.8°F-2.3°C 90% Calm Calm -- 30.02 in1016.6 mb 0.00 in0.0 mm 0.00 in0.0 mm 0.00 in0.0 mm
01:00 AM 30.4°F-0.9°C 27.8°F-2.3°C 90% Calm Calm -- 30.01 in1016.3 mb 0.00 in0.0 mm 0.00 in0.0 mm 0.00 in0.0 mm
01:05 AM 30.6°F-0.8°C 28.0°F-2.2°C 90% Calm Calm -- 30.02 in1016.6 mb 0.00 in0.0 mm 0.00 in0.0 mm 0.00 in0.0 mm
01:10 AM 30.4°F-0.9°C 28.1°F-2.2°C 91% Calm Calm -- 30.02 in1016.6 mb 0.00 in0.0 mm 0.00 in0.0 mm 0.00 in0.0 mm
01:15 AM 30.7°F-0.7°C 27.6°F-2.4°C 88% 1.0 mph W1.6 kmh W 2.0 mph3.2 kmh 30.01 in1016.3 mb 0.00 in0.0 mm 0.00 in0.0 mm 0.00 in0.0 mm
01:20 AM 30.9°F-0.6°C 27.8°F-2.3°C 88% 1.0 mph NW1.6 kmh NW 1.0 mph1.6 kmh 30.01 in1016.3 mb 0.00 in0.0 mm 0.00 in0.0 mm 0.00 in0.0 mm
01:25 AM 30.9°F-0.6°C 27.8°F-2.3°C 88% Calm Calm -- 30.02 in1016.6 mb 0.00 in0.0 mm 0.00 in0.0 mm 0.00 in0.0 mm
01:30 AM 31.1°F-0.5°C 28.0°F-2.2°C 88% 1.0 mph NW1.6 kmh NW 2.0 mph3.2 kmh 30.01 in1016.3 mb 0.00 in0.0 mm 0.00 in0.0 mm 0.00 in0.0 mm
01:35 AM 31.1°F-0.5°C 28.2°F-2.1°C 89% Calm Calm 1.0 mph1.6 kmh 30.00 in1015.9 mb 0.00 in0.0 mm 0.00 in0.0 mm 0.00 in0.0 mm
01:40 AM 31.1°F-0.5°C 28.8°F-1.8°C 91% 1.0 mph S1.6 kmh S 1.0 mph1.6 kmh 30.01 in1016.3 mb 0.00 in0.0 mm 0.00 in0.0 mm 0.00 in0.0 mm
01:45 AM 31.1°F-0.5°C 29.1°F-1.6°C 92% Calm Calm -- 30.00 in1015.9 mb 0.00 in0.0 mm 0.00 in0.0 mm 0.00 in0.0 mm
01:50 AM 31.1°F-0.5°C 29.3°F-1.5°C 93% 1.0 mph SW1.6 kmh SW 1.0 mph1.6 kmh 29.99 in1015.6 mb 0.00 in0.0 mm 0.00 in0.0 mm 0.00 in0.0 mm
01:55 AM 30.9°F-0.6°C 29.4°F-1.4°C 94% Calm Calm 1.0 mph1.6 kmh 29.99 in1015.6 mb 0.00 in0.0 mm 0.00 in0.0 mm 0.00 in0.0 mm
02:00 AM 30.9°F-0.6°C 29.4°F-1.4°C 94% Calm Calm -- 29.99 in1015.6 mb 0.00 in0.0 mm 0.00 in0.0 mm 0.00 in0.0 mm
02:05 AM 30.9°F-0.6°C 29.4°F-1.4°C 94% Calm Calm 1.0 mph1.6 kmh 29.99 in1015.6 mb 0.00 in0.0 mm 0.00 in0.0 mm 0.00 in0.0 mm
02:10 AM 30.9°F-0.6°C 29.4°F-1.4°C 94% Calm Calm 1.0 mph1.6 kmh 29.98 in1015.2 mb 0.00 in0.0 mm 0.00 in0.0 mm 0.00 in0.0 mm
02:15 AM 30.9°F-0.6°C 29.6°F-1.3°C 95% 1.0 mph ESE1.6 kmh ESE 1.0 mph1.6 kmh 29.98 in1015.2 mb 0.00 in0.0 mm 0.00 in0.0 mm 0.00 in0.0 mm
02:20 AM 30.9°F-0.6°C 29.6°F-1.3°C 95% Calm Calm -- 29.97 in1014.9 mb 0.00 in0.0 mm 0.00 in0.0 mm 0.00 in0.0 mm
02:25 AM 30.7°F-0.7°C 29.4°F-1.4°C 95% Calm Calm 1.0 mph1.6 kmh 29.96 in1014.6 mb 0.00 in0.0 mm 0.00 in0.0 mm 0.00 in0.0 mm
02:30 AM 30.7°F-0.7°C 29.4°F-1.4°C 95% Calm Calm -- 29.96 in1014.6 mb 0.00 in0.0 mm 0.00 in0.0 mm 0.00 in0.0 mm
02:35 AM 30.7°F-0.7°C 29.4°F-1.4°C 95% Calm Calm 2.0 mph3.2 kmh 29.96 in1014.6 mb 0.00 in0.0 mm 0.00 in0.0 mm 0.00 in0.0 mm
02:40 AM 30.7°F-0.7°C 29.4°F-1.4°C 95% 1.0 mph W1.6 kmh W 1.0 mph1.6 kmh 29.95 in1014.2 mb 0.00 in0.0 mm 0.00 in0.0 mm 0.00 in0.0 mm
02:45 AM 30.7°F-0.7°C 29.7°F-1.3°C 96% Calm Calm 1.0 mph1.6 kmh 29.95 in1014.2 mb 0.00 in0.0 mm 0.00 in0.0 mm 0.00 in0.0 mm
02:50 AM 30.7°F-0.7°C 29.7°F-1.3°C 96% Calm Calm -- 29.94 in1013.9 mb 0.00 in0.0 mm 0.00 in0.0 mm 0.00 in0.0 mm
02:55 AM 30.7°F-0.7°C 29.7°F-1.3°C 96% Calm Calm -- 29.94 in1013.9 mb 0.00 in0.0 mm 0.00 in0.0 mm 0.00 in0.0 mm
03:00 AM 30.7°F-0.7°C 29.7°F-1.3°C 96% Calm Calm 1.0 mph1.6 kmh 29.94 in1013.9 mb 0.00 in0.0 mm 0.00 in0.0 mm 0.00 in0.0 mm
03:05 AM 30.7°F-0.7°C 29.7°F-1.3°C 96% Calm Calm -- 29.93 in1013.5 mb 0.00 in0.0 mm 0.00 in0.0 mm 0.00 in0.0 mm
03:10 AM 30.7°F-0.7°C 29.7°F-1.3°C 96% Calm Calm -- 29.93 in1013.5 mb 0.00 in0.0 mm 0.00 in0.0 mm 0.00 in0.0 mm
03:15 AM 30.7°F-0.7°C 29.7°F-1.3°C 96% 1.0 mph SSW1.6 kmh SSW 1.0 mph1.6 kmh 29.93 in1013.5 mb 0.00 in0.0 mm 0.00 in0.0 mm 0.00 in0.0 mm
03:20 AM 30.7°F-0.7°C 29.7°F-1.3°C 96% 1.0 mph W1.6 kmh W 1.0 mph1.6 kmh 29.91 in1012.9 mb 0.00 in0.0 mm 0.00 in0.0 mm 0.00 in0.0 mm
03:25 AM 30.7°F-0.7°C 29.7°F-1.3°C 96% Calm Calm 1.0 mph1.6 kmh 29.91 in1012.9 mb 0.00 in0.0 mm 0.00 in0.0 mm 0.00 in0.0 mm
03:30 AM 30.7°F-0.7°C 29.7°F-1.3°C 96% 1.0 mph W1.6 kmh W 1.0 mph1.6 kmh 29.91 in1012.9 mb 0.00 in0.0 mm 0.00 in0.0 mm 0.00 in0.0 mm
03:35 AM 30.7°F-0.7°C 29.7°F-1.3°C 96% 1.0 mph WNW1.6 kmh WNW 1.0 mph1.6 kmh 29.90 in1012.5 mb 0.00 in0.0 mm 0.00 in0.0 mm 0.00 in0.0 mm
03:40 AM 30.7°F-0.7°C 30.0°F-1.1°C 97% Calm Calm -- 29.91 in1012.9 mb 0.00 in0.0 mm 0.00 in0.0 mm 0.00 in0.0 mm
03:45 AM 30.6°F-0.8°C 29.9°F-1.2°C 97% 1.0 mph W1.6 kmh W 1.0 mph1.6 kmh 29.91 in1012.9 mb 0.00 in0.0 mm 0.00 in0.0 mm 0.00 in0.0 mm
03:50 AM 30.6°F-0.8°C 29.9°F-1.2°C 97% Calm Calm 1.0 mph1.6 kmh 29.90 in1012.5 mb 0.00 in0.0 mm 0.00 in0.0 mm 0.00 in0.0 mm
03:55 AM 30.6°F-0.8°C 29.9°F-1.2°C 97% Calm Calm 1.0 mph1.6 kmh 29.90 in1012.5 mb 0.00 in0.0 mm 0.00 in0.0 mm 0.00 in0.0 mm
04:00 AM 30.6°F-0.8°C 29.9°F-1.2°C 97% Calm Calm 1.0 mph1.6 kmh 29.89 in1012.2 mb 0.00 in0.0 mm 0.00 in0.0 mm 0.00 in0.0 mm
04:05 AM 30.6°F-0.8°C 29.9°F-1.2°C 97% Calm Calm -- 29.89 in1012.2 mb 0.00 in0.0 mm 0.00 in0.0 mm 0.00 in0.0 mm
04:10 AM 30.6°F-0.8°C 29.9°F-1.2°C 97% Calm Calm -- 29.89 in1012.2 mb 0.00 in0.0 mm 0.00 in0.0 mm 0.00 in0.0 mm
04:15 AM 30.6°F-0.8°C 29.9°F-1.2°C 97% Calm Calm -- 29.88 in1011.9 mb 0.00 in0.0 mm 0.00 in0.0 mm 0.00 in0.0 mm
04:20 AM 30.6°F-0.8°C 29.9°F-1.2°C 97% Calm Calm -- 29.88 in1011.9 mb 0.00 in0.0 mm 0.00 in0.0 mm 0.00 in0.0 mm
04:25 AM 30.6°F-0.8°C 29.9°F-1.2°C 97% Calm Calm -- 29.88 in1011.9 mb 0.00 in0.0 mm 0.00 in0.0 mm 0.00 in0.0 mm
04:30 AM 30.6°F-0.8°C 29.9°F-1.2°C 97% Calm Calm -- 29.87 in1011.5 mb 0.00 in0.0 mm 0.00 in0.0 mm 0.00 in0.0 mm
04:35 AM 30.7°F-0.7°C 30.0°F-1.1°C 97% Calm Calm -- 29.87 in1011.5 mb 0.00 in0.0 mm 0.00 in0.0 mm 0.00 in0.0 mm
04:40 AM 30.7°F-0.7°C 30.0°F-1.1°C 97% Calm Calm -- 29.87 in1011.5 mb 0.00 in0.0 mm 0.00 in0.0 mm 0.00 in0.0 mm
04:45 AM 30.7°F-0.7°C 30.0°F-1.1°C 97% Calm Calm -- 29.87 in1011.5 mb 0.00 in0.0 mm 0.00 in0.0 mm 0.00 in0.0 mm
04:50 AM 30.7°F-0.7°C 30.0°F-1.1°C 97% Calm Calm -- 29.86 in1011.2 mb 0.00 in0.0 mm 0.00 in0.0 mm 0.00 in0.0 mm
04:55 AM 30.7°F-0.7°C 30.0°F-1.1°C 97% Calm Calm -- 29.85 in1010.8 mb 0.00 in0.0 mm 0.00 in0.0 mm 0.00 in0.0 mm
05:00 AM 30.9°F-0.6°C 30.2°F-1.0°C 97% Calm Calm -- 29.85 in1010.8 mb 0.00 in0.0 mm 0.00 in0.0 mm 0.00 in0.0 mm
05:05 AM 30.9°F-0.6°C 30.2°F-1.0°C 97% Calm Calm -- 29.85 in1010.8 mb 0.00 in0.0 mm 0.00 in0.0 mm 0.00 in0.0 mm
05:10 AM 30.9°F-0.6°C 30.2°F-1.0°C 97% Calm Calm -- 29.84 in1010.5 mb 0.00 in0.0 mm 0.00 in0.0 mm 0.00 in0.0 mm
05:15 AM 30.9°F-0.6°C 30.2°F-1.0°C 97% Calm Calm -- 29.84 in1010.5 mb 0.00 in0.0 mm 0.00 in0.0 mm 0.00 in0.0 mm
05:20 AM 30.9°F-0.6°C 30.2°F-1.0°C 97% Calm Calm -- 29.85 in1010.8 mb 0.00 in0.0 mm 0.00 in0.0 mm 0.00 in0.0 mm
05:25 AM 30.9°F-0.6°C 30.2°F-1.0°C 97% Calm Calm -- 29.85 in1010.8 mb 0.00 in0.0 mm 0.00 in0.0 mm 0.00 in0.0 mm
05:30 AM 30.9°F-0.6°C 30.2°F-1.0°C 97% Calm Calm -- 29.85 in1010.8 mb 0.00 in0.0 mm 0.00 in0.0 mm 0.00 in0.0 mm
05:35 AM 30.9°F-0.6°C 30.2°F-1.0°C 97% Calm Calm -- 29.85 in1010.8 mb 0.00 in0.0 mm 0.00 in0.0 mm 0.00 in0.0 mm
05:40 AM 30.9°F-0.6°C 30.2°F-1.0°C 97% Calm Calm -- 29.84 in1010.5 mb 0.00 in0.0 mm 0.00 in0.0 mm 0.00 in0.0 mm
05:45 AM 30.9°F-0.6°C 30.2°F-1.0°C 97% Calm Calm -- 29.84 in1010.5 mb 0.00 in0.0 mm 0.00 in0.0 mm 0.00 in0.0 mm
05:50 AM 30.9°F-0.6°C 30.2°F-1.0°C 97% Calm Calm -- 29.84 in1010.5 mb 0.00 in0.0 mm 0.00 in0.0 mm 0.00 in0.0 mm
05:55 AM 30.9°F-0.6°C 30.2°F-1.0°C 97% Calm Calm -- 29.84 in1010.5 mb 0.00 in0.0 mm 0.00 in0.0 mm 0.00 in0.0 mm
06:00 AM 30.9°F-0.6°C 30.2°F-1.0°C 97% Calm Calm -- 29.83 in1010.2 mb 0.00 in0.0 mm 0.00 in0.0 mm 0.00 in0.0 mm
06:05 AM 30.9°F-0.6°C 30.2°F-1.0°C 97% Calm Calm -- 29.83 in1010.2 mb 0.00 in0.0 mm 0.00 in0.0 mm 0.00 in0.0 mm
06:10 AM 30.9°F-0.6°C 30.2°F-1.0°C 97% Calm Calm -- 29.83 in1010.2 mb 0.00 in0.0 mm 0.00 in0.0 mm 0.00 in0.0 mm
06:15 AM 30.9°F-0.6°C 30.2°F-1.0°C 97% Calm Calm -- 29.83 in1010.2 mb 0.00 in0.0 mm 0.00 in0.0 mm 0.00 in0.0 mm
06:20 AM 30.9°F-0.6°C 30.2°F-1.0°C 97% Calm Calm -- 29.83 in1010.2 mb 0.00 in0.0 mm 0.00 in0.0 mm 0.00 in0.0 mm
06:25 AM 30.9°F-0.6°C 30.2°F-1.0°C 97% Calm Calm -- 29.83 in1010.2 mb 0.00 in0.0 mm 0.00 in0.0 mm 0.00 in0.0 mm
06:30 AM 30.9°F-0.6°C 30.2°F-1.0°C 97% Calm Calm -- 29.83 in1010.2 mb 0.00 in0.0 mm 0.00 in0.0 mm 0.00 in0.0 mm
06:35 AM 30.9°F-0.6°C 30.2°F-1.0°C 97% Calm Calm -- 29.83 in1010.2 mb 0.00 in0.0 mm 0.00 in0.0 mm 0.00 in0.0 mm
06:40 AM 30.9°F-0.6°C 30.2°F-1.0°C 97% Calm Calm -- 29.83 in1010.2 mb 0.00 in0.0 mm 0.00 in0.0 mm 0.00 in0.0 mm
06:45 AM 30.9°F-0.6°C 30.2°F-1.0°C 97% Calm Calm -- 29.84 in1010.5 mb 0.00 in0.0 mm 0.00 in0.0 mm 0.00 in0.0 mm
06:50 AM 30.9°F-0.6°C 30.2°F-1.0°C 97% Calm Calm -- 29.83 in1010.2 mb 0.00 in0.0 mm 0.00 in0.0 mm 0.00 in0.0 mm
06:55 AM 30.7°F-0.7°C 30.0°F-1.1°C 97% Calm Calm -- 29.84 in1010.5 mb 0.00 in0.0 mm 0.00 in0.0 mm 0.00 in0.0 mm
07:00 AM 30.7°F-0.7°C 30.0°F-1.1°C 97% Calm Calm -- 29.83 in1010.2 mb 0.00 in0.0 mm 0.00 in0.0 mm 0.00 in0.0 mm
07:05 AM 30.6°F-0.8°C 29.9°F-1.2°C 97% Calm Calm -- 29.83 in1010.2 mb 0.00 in0.0 mm 0.00 in0.0 mm 0.00 in0.0 mm
07:10 AM 30.6°F-0.8°C 29.9°F-1.2°C 97% Calm Calm -- 29.84 in1010.5 mb 0.00 in0.0 mm 0.00 in0.0 mm 0.00 in0.0 mm
07:15 AM 30.6°F-0.8°C 29.9°F-1.2°C 97% Calm Calm -- 29.84 in1010.5 mb 0.00 in0.0 mm 0.00 in0.0 mm 0.00 in0.0 mm
07:20 AM 30.6°F-0.8°C 29.9°F-1.2°C 97% Calm Calm -- 29.84 in1010.5 mb 0.00 in0.0 mm 0.00 in0.0 mm 0.00 in0.0 mm
07:25 AM 30.6°F-0.8°C 29.9°F-1.2°C 97% Calm Calm -- 29.84 in1010.5 mb 0.00 in0.0 mm 0.00 in0.0 mm 0.00 in0.0 mm
07:30 AM 30.6°F-0.8°C 29.9°F-1.2°C 97% Calm Calm -- 29.84 in1010.5 mb 0.00 in0.0 mm 0.00 in0.0 mm 0.00 in0.0 mm
07:35 AM 30.6°F-0.8°C 29.9°F-1.2°C 97% Calm Calm -- 29.84 in1010.5 mb 0.00 in0.0 mm 0.00 in0.0 mm 0.00 in0.0 mm
07:40 AM 30.6°F-0.8°C 29.9°F-1.2°C 97% Calm Calm -- 29.84 in1010.5 mb 0.00 in0.0 mm 0.00 in0.0 mm 0.00 in0.0 mm
07:45 AM 30.6°F-0.8°C 29.9°F-1.2°C 97% Calm Calm -- 29.84 in1010.5 mb 0.00 in0.0 mm 0.00 in0.0 mm 0.00 in0.0 mm
07:50 AM 30.7°F-0.7°C 30.0°F-1.1°C 97% Calm Calm -- 29.84 in1010.5 mb 0.00 in0.0 mm 0.00 in0.0 mm 0.00 in0.0 mm
07:55 AM 30.9°F-0.6°C 30.2°F-1.0°C 97% Calm Calm -- 29.84 in1010.5 mb 0.00 in0.0 mm 0.00 in0.0 mm 0.00 in0.0 mm
08:00 AM 30.9°F-0.6°C 30.2°F-1.0°C 97% Calm Calm -- 29.84 in1010.5 mb 0.00 in0.0 mm 0.00 in0.0 mm 0.00 in0.0 mm
08:05 AM 30.9°F-0.6°C 30.2°F-1.0°C 97% Calm Calm -- 29.84 in1010.5 mb 0.00 in0.0 mm 0.00 in0.0 mm 0.00 in0.0 mm
08:10 AM 31.1°F-0.5°C 30.3°F-0.9°C 97% Calm Calm -- 29.84 in1010.5 mb 0.00 in0.0 mm 0.00 in0.0 mm 0.00 in0.0 mm
08:15 AM 31.3°F-0.4°C 30.5°F-0.8°C 97% Calm Calm -- 29.84 in1010.5 mb 0.00 in0.0 mm 0.00 in0.0 mm 0.00 in0.0 mm
08:32 AM 31.6°F-0.2°C 30.8°F-0.7°C 97% Calm Calm -- 29.85 in1010.8 mb 0.00 in0.0 mm 0.00 in0.0 mm 0.00 in0.0 mm
08:35 AM 32.2°F0.1°C 31.4°F-0.3°C 97% Calm Calm -- 29.85 in1010.8 mb 0.00 in0.0 mm 0.00 in0.0 mm 0.00 in0.0 mm
08:40 AM 32.4°F0.2°C 31.4°F-0.3°C 96% Calm Calm -- 29.85 in1010.8 mb 0.00 in0.0 mm 0.00 in0.0 mm 0.00 in0.0 mm
08:45 AM 32.5°F0.3°C 31.5°F-0.3°C 96% Calm Calm -- 29.85 in1010.8 mb 0.00 in0.0 mm 0.00 in0.0 mm 0.00 in0.0 mm
08:50 AM 32.7°F0.4°C 31.4°F-0.3°C 95% Calm Calm -- 29.85 in1010.8 mb 0.00 in0.0 mm 0.00 in0.0 mm 0.00 in0.0 mm
08:55 AM 32.9°F0.5°C 31.4°F-0.3°C 94% Calm Calm -- 29.85 in1010.8 mb 0.00 in0.0 mm 0.00 in0.0 mm 0.00 in0.0 mm
09:00 AM 32.9°F0.5°C 31.4°F-0.3°C 94% Calm Calm -- 29.86 in1011.2 mb 0.00 in0.0 mm 0.00 in0.0 mm 0.00 in0.0 mm
09:05 AM 33.3°F0.7°C 31.5°F-0.3°C 93% Calm Calm -- 29.86 in1011.2 mb 0.00 in0.0 mm 0.00 in0.0 mm 0.00 in0.0 mm
09:10 AM 33.6°F0.9°C 31.5°F-0.3°C 92% Calm Calm -- 29.86 in1011.2 mb 0.00 in0.0 mm 0.00 in0.0 mm 0.00 in0.0 mm
09:15 AM 33.8°F1.0°C 31.7°F-0.2°C 92% Calm Calm -- 29.86 in1011.2 mb 0.00 in0.0 mm 0.00 in0.0 mm 0.00 in0.0 mm
09:20 AM 33.1°F0.6°C 31.0°F-0.6°C 92% Calm Calm -- 29.87 in1011.5 mb 0.00 in0.0 mm 0.00 in0.0 mm 0.00 in0.0 mm
09:25 AM 33.1°F0.6°C 31.3°F-0.4°C 93% Calm Calm -- 29.87 in1011.5 mb 0.00 in0.0 mm 0.00 in0.0 mm 0.00 in0.0 mm
09:30 AM 33.1°F0.6°C 31.3°F-0.4°C 93% Calm Calm -- 29.87 in1011.5 mb 0.00 in0.0 mm 0.00 in0.0 mm 0.00 in0.0 mm
09:35 AM 33.1°F0.6°C 31.3°F-0.4°C 93% Calm Calm -- 29.87 in1011.5 mb 0.00 in0.0 mm 0.00 in0.0 mm 0.00 in0.0 mm
09:40 AM 33.6°F0.9°C 31.5°F-0.3°C 92% Calm Calm -- 29.87 in1011.5 mb 0.00 in0.0 mm 0.00 in0.0 mm 0.00 in0.0 mm
09:45 AM 34.0°F1.1°C 31.7°F-0.2°C 91% Calm Calm -- 29.88 in1011.9 mb 0.00 in0.0 mm 0.00 in0.0 mm 0.00 in0.0 mm
09:50 AM 34.7°F1.5°C 32.1°F0.1°C 90% 4.0 mph SE6.4 kmh SE 6.0 mph9.7 kmh 29.88 in1011.9 mb 0.00 in0.0 mm 0.00 in0.0 mm 0.00 in0.0 mm
09:55 AM 35.2°F1.8°C 32.0°F0.0°C 88% 5.0 mph SE8.0 kmh SE 6.0 mph9.7 kmh 29.88 in1011.9 mb 0.00 in0.0 mm 0.00 in0.0 mm 0.00 in0.0 mm
10:00 AM 35.8°F2.1°C 32.3°F0.2°C 87% 4.0 mph SE6.4 kmh SE 6.0 mph9.7 kmh 29.88 in1011.9 mb 0.00 in0.0 mm 0.00 in0.0 mm 0.00 in0.0 mm
10:05 AM 35.8°F2.1°C 32.3°F0.2°C 87% 5.0 mph ESE8.0 kmh ESE 5.0 mph8.0 kmh 29.89 in1012.2 mb 0.00 in0.0 mm 0.00 in0.0 mm 0.00 in0.0 mm
10:10 AM 36.1°F2.3°C 32.3°F0.2°C 86% 4.0 mph S6.4 kmh S 6.0 mph9.7 kmh 29.89 in1012.2 mb 0.00 in0.0 mm 0.00 in0.0 mm 0.00 in0.0 mm
10:15 AM 36.1°F2.3°C 32.0°F0.0°C 85% 4.0 mph S6.4 kmh S 6.0 mph9.7 kmh 29.90 in1012.5 mb 0.00 in0.0 mm 0.00 in0.0 mm 0.00 in0.0 mm
10:20 AM 36.0°F2.2°C 32.2°F0.1°C 86% 5.0 mph ESE8.0 kmh ESE 6.0 mph9.7 kmh 29.90 in1012.5 mb 0.00 in0.0 mm 0.00 in0.0 mm 0.00 in0.0 mm
10:25 AM 36.3°F2.4°C 32.2°F0.1°C 85% 4.0 mph ESE6.4 kmh ESE 4.0 mph6.4 kmh 29.90 in1012.5 mb 0.00 in0.0 mm 0.00 in0.0 mm 0.00 in0.0 mm
10:30 AM 36.0°F2.2°C 32.2°F0.1°C 86% 5.0 mph SE8.0 kmh SE 5.0 mph8.0 kmh 29.91 in1012.9 mb 0.00 in0.0 mm 0.00 in0.0 mm 0.00 in0.0 mm
10:35 AM 35.8°F2.1°C 32.0°F0.0°C 86% 3.0 mph W4.8 kmh W 6.0 mph9.7 kmh 29.91 in1012.9 mb 0.00 in0.0 mm 0.00 in0.0 mm 0.00 in0.0 mm
10:40 AM 35.6°F2.0°C 31.5°F-0.3°C 85% 2.0 mph E3.2 kmh E 6.0 mph9.7 kmh 29.91 in1012.9 mb 0.00 in0.0 mm 0.00 in0.0 mm 0.00 in0.0 mm
10:45 AM 36.0°F2.2°C 30.7°F-0.7°C 81% 7.0 mph SE11.3 kmh SE 10.0 mph16.1 kmh 29.91 in1012.9 mb 0.00 in0.0 mm 0.00 in0.0 mm 0.00 in0.0 mm
10:50 AM 35.4°F1.9°C 30.2°F-1.0°C 81% 5.0 mph S8.0 kmh S 9.0 mph14.5 kmh 29.92 in1013.2 mb 0.00 in0.0 mm 0.00 in0.0 mm 0.00 in0.0 mm
10:55 AM 35.1°F1.7°C 30.8°F-0.7°C 84% 9.0 mph SE14.5 kmh SE 9.0 mph14.5 kmh 29.92 in1013.2 mb 0.00 in0.0 mm 0.00 in0.0 mm 0.00 in0.0 mm
11:00 AM 34.3°F1.3°C 30.6°F-0.8°C 86% 5.0 mph SSE8.0 kmh SSE 9.0 mph14.5 kmh 29.92 in1013.2 mb 0.00 in0.0 mm 0.00 in0.0 mm 0.00 in0.0 mm
11:05 AM 35.4°F1.9°C 30.8°F-0.7°C 83% 4.0 mph ESE6.4 kmh ESE 10.0 mph16.1 kmh 29.92 in1013.2 mb 0.00 in0.0 mm 0.00 in0.0 mm 0.00 in0.0 mm
11:10 AM 35.2°F1.8°C 30.3°F-0.9°C 82% 6.0 mph ESE9.7 kmh ESE 8.0 mph12.9 kmh 29.92 in1013.2 mb 0.00 in0.0 mm 0.00 in0.0 mm 0.00 in0.0 mm
11:15 AM 35.1°F1.7°C 29.9°F-1.2°C 81% 6.0 mph ESE9.7 kmh ESE 7.0 mph11.3 kmh 29.92 in1013.2 mb 0.00 in0.0 mm 0.00 in0.0 mm 0.00 in0.0 mm
11:20 AM 35.2°F1.8°C 30.0°F-1.1°C 81% 7.0 mph ENE11.3 kmh ENE 8.0 mph12.9 kmh 29.92 in1013.2 mb 0.00 in0.0 mm 0.00 in0.0 mm 0.00 in0.0 mm
11:25 AM 35.1°F1.7°C 29.9°F-1.2°C 81% 3.0 mph SSW4.8 kmh SSW 8.0 mph12.9 kmh 29.92 in1013.2 mb 0.00 in0.0 mm 0.00 in0.0 mm 0.00 in0.0 mm
11:30 AM 35.4°F1.9°C 29.9°F-1.2°C 80% 4.0 mph SW6.4 kmh SW 8.0 mph12.9 kmh 29.92 in1013.2 mb 0.00 in0.0 mm 0.00 in0.0 mm 0.00 in0.0 mm
11:35 AM 35.8°F2.1°C 30.2°F-1.0°C 80% 7.0 mph ESE11.3 kmh ESE 7.0 mph11.3 kmh 29.92 in1013.2 mb 0.02 in0.5 mm 0.24 in6.1 mm 0.02 in0.5 mm
11:40 AM 35.6°F2.0°C 29.4°F-1.4°C 78% 9.0 mph SW14.5 kmh SW 10.0 mph16.1 kmh 29.92 in1013.2 mb 0.04 in1.0 mm 0.24 in6.1 mm 0.04 in1.0 mm
11:45 AM 35.4°F1.9°C 28.3°F-2.1°C 75% 7.0 mph SE11.3 kmh SE 12.0 mph19.3 kmh 29.92 in1013.2 mb 0.05 in1.3 mm 0.12 in3.0 mm 0.05 in1.3 mm
11:50 AM 34.9°F1.6°C 27.8°F-2.3°C 75% 9.0 mph SE14.5 kmh SE 11.0 mph17.7 kmh 29.92 in1013.2 mb 0.06 in1.5 mm 0.12 in3.0 mm 0.06 in1.5 mm
11:55 AM 35.1°F1.7°C 28.3°F-2.1°C 76% 8.0 mph SW12.9 kmh SW 9.0 mph14.5 kmh 29.91 in1012.9 mb 0.07 in1.8 mm 0.12 in3.0 mm 0.07 in1.8 mm
12:00 PM 35.1°F1.7°C 28.3°F-2.1°C 76% 6.0 mph S9.7 kmh S 10.0 mph16.1 kmh 29.92 in1013.2 mb 0.08 in2.0 mm 0.01 in0.3 mm 0.08 in2.0 mm
12:05 PM 34.9°F1.6°C 28.1°F-2.2°C 76% 6.0 mph W9.7 kmh W 10.0 mph16.1 kmh 29.92 in1013.2 mb 0.09 in2.3 mm 0.12 in3.0 mm 0.09 in2.3 mm
12:10 PM 34.9°F1.6°C 28.1°F-2.2°C 76% 6.0 mph SE9.7 kmh SE 9.0 mph14.5 kmh 29.92 in1013.2 mb 0.09 in2.3 mm 0.00 in0.0 mm 0.09 in2.3 mm
12:15 PM 34.7°F1.5°C 27.9°F-2.3°C 76% 5.0 mph SE8.0 kmh SE 10.0 mph16.1 kmh 29.92 in1013.2 mb 0.10 in2.5 mm 0.12 in3.0 mm 0.10 in2.5 mm
12:20 PM 34.9°F1.6°C 28.1°F-2.2°C 76% 8.0 mph ESE12.9 kmh ESE 9.0 mph14.5 kmh 29.92 in1013.2 mb 0.11 in2.8 mm 0.12 in3.0 mm 0.11 in2.8 mm
12:25 PM 35.1°F1.7°C 28.0°F-2.2°C 75% 8.0 mph ESE12.9 kmh ESE 9.0 mph14.5 kmh 29.92 in1013.2 mb 0.11 in2.8 mm 0.00 in0.0 mm 0.11 in2.8 mm
12:30 PM 35.1°F1.7°C 28.3°F-2.1°C 76% 9.0 mph ESE14.5 kmh ESE 9.0 mph14.5 kmh 29.92 in1013.2 mb 0.09 in2.3 mm 0.00 in0.0 mm 0.12 in3.0 mm
12:35 PM 35.1°F1.7°C 27.7°F-2.4°C 74% 9.0 mph SE14.5 kmh SE 9.0 mph14.5 kmh 29.92 in1013.2 mb 0.09 in2.3 mm 0.00 in0.0 mm 0.12 in3.0 mm
12:40 PM 34.7°F1.5°C 27.3°F-2.6°C 74% 9.0 mph S14.5 kmh S 11.0 mph17.7 kmh 29.92 in1013.2 mb 0.07 in1.8 mm 0.00 in0.0 mm 0.13 in3.3 mm
12:45 PM 34.7°F1.5°C 26.6°F-3.0°C 72% 7.0 mph SE11.3 kmh SE 10.0 mph16.1 kmh 29.92 in1013.2 mb 0.07 in1.8 mm 0.00 in0.0 mm 0.13 in3.3 mm
12:50 PM 34.7°F1.5°C 26.6°F-3.0°C 72% 9.0 mph SE14.5 kmh SE 9.0 mph14.5 kmh 29.92 in1013.2 mb 0.06 in1.5 mm 0.00 in0.0 mm 0.14 in3.6 mm
12:55 PM 35.1°F1.7°C 27.3°F-2.6°C 73% 3.0 mph SW4.8 kmh SW 9.0 mph14.5 kmh 29.92 in1013.2 mb 0.06 in1.5 mm 0.00 in0.0 mm 0.14 in3.6 mm
01:00 PM 34.9°F1.6°C 26.8°F-2.9°C 72% 9.0 mph ESE14.5 kmh ESE 10.0 mph16.1 kmh 29.92 in1013.2 mb 0.06 in1.5 mm 0.00 in0.0 mm 0.15 in3.8 mm
01:05 PM 35.1°F1.7°C 27.0°F-2.8°C 72% 7.0 mph W11.3 kmh W 9.0 mph14.5 kmh 29.92 in1013.2 mb 0.06 in1.5 mm 0.00 in0.0 mm 0.15 in3.8 mm
01:10 PM 34.5°F1.4°C 26.8°F-2.9°C 73% 7.0 mph ESE11.3 kmh ESE 7.0 mph11.3 kmh 29.92 in1013.2 mb 0.04 in1.0 mm 0.00 in0.0 mm 0.15 in3.8 mm
01:15 PM 34.2°F1.2°C 26.1°F-3.3°C 72% 5.0 mph SSE8.0 kmh SSE 10.0 mph16.1 kmh 29.92 in1013.2 mb 0.05 in1.3 mm 0.12 in3.0 mm 0.16 in4.1 mm
01:20 PM 33.8°F1.0°C 25.7°F-3.5°C 72% 8.0 mph ESE12.9 kmh ESE 9.0 mph14.5 kmh 29.92 in1013.2 mb 0.04 in1.0 mm 0.00 in0.0 mm 0.16 in4.1 mm
01:25 PM 33.8°F1.0°C 25.7°F-3.5°C 72% 7.0 mph SE11.3 kmh SE 10.0 mph16.1 kmh 29.92 in1013.2 mb 0.04 in1.0 mm 0.00 in0.0 mm 0.16 in4.1 mm
01:30 PM 34.0°F1.1°C 25.9°F-3.4°C 72% 6.0 mph ESE9.7 kmh ESE 8.0 mph12.9 kmh 29.93 in1013.5 mb 0.03 in0.8 mm 0.00 in0.0 mm 0.16 in4.1 mm
01:35 PM 34.7°F1.5°C 26.3°F-3.2°C 71% 4.0 mph SE6.4 kmh SE 7.0 mph11.3 kmh 29.92 in1013.2 mb 0.04 in1.0 mm 0.12 in3.0 mm 0.17 in4.3 mm
01:40 PM 35.1°F1.7°C 26.7°F-2.9°C 71% 7.0 mph ESE11.3 kmh ESE 9.0 mph14.5 kmh 29.92 in1013.2 mb 0.03 in0.8 mm 0.00 in0.0 mm 0.17 in4.3 mm
01:45 PM 35.1°F1.7°C 26.3°F-3.2°C 70% 9.0 mph ESE14.5 kmh ESE 9.0 mph14.5 kmh 29.93 in1013.5 mb 0.03 in0.8 mm 0.00 in0.0 mm 0.17 in4.3 mm
01:50 PM 34.3°F1.3°C 25.2°F-3.8°C 69% 8.0 mph S12.9 kmh S 8.0 mph12.9 kmh 29.93 in1013.5 mb 0.03 in0.8 mm 0.00 in0.0 mm 0.18 in4.6 mm
01:55 PM 34.3°F1.3°C 25.2°F-3.8°C 69% 8.0 mph ENE12.9 kmh ENE 8.0 mph12.9 kmh 29.93 in1013.5 mb 0.03 in0.8 mm 0.00 in0.0 mm 0.18 in4.6 mm
02:00 PM 34.3°F1.3°C 25.5°F-3.6°C 70% 5.0 mph ESE8.0 kmh ESE 9.0 mph14.5 kmh 29.93 in1013.5 mb 0.03 in0.8 mm 0.00 in0.0 mm 0.18 in4.6 mm
02:05 PM 34.0°F1.1°C 25.9°F-3.4°C 72% 6.0 mph S9.7 kmh S 11.0 mph17.7 kmh 29.93 in1013.5 mb 0.03 in0.8 mm 0.00 in0.0 mm 0.18 in4.6 mm
02:10 PM 33.8°F1.0°C 26.1°F-3.3°C 73% 6.0 mph SSE9.7 kmh SSE 8.0 mph12.9 kmh 29.94 in1013.9 mb 0.03 in0.8 mm 0.00 in0.0 mm 0.19 in4.8 mm
02:15 PM 33.4°F0.8°C 25.7°F-3.5°C 73% 7.0 mph SE11.3 kmh SE 8.0 mph12.9 kmh 29.94 in1013.9 mb 0.03 in0.8 mm 0.00 in0.0 mm 0.19 in4.8 mm
02:20 PM 33.1°F0.6°C 25.1°F-3.8°C 72% 6.0 mph ESE9.7 kmh ESE 8.0 mph12.9 kmh 29.94 in1013.9 mb 0.03 in0.8 mm 0.00 in0.0 mm 0.19 in4.8 mm
02:25 PM 33.3°F0.7°C 25.3°F-3.7°C 72% 9.0 mph ESE14.5 kmh ESE 10.0 mph16.1 kmh 29.94 in1013.9 mb 0.03 in0.8 mm 0.00 in0.0 mm 0.19 in4.8 mm
02:30 PM 33.6°F0.9°C 24.9°F-3.9°C 70% 6.0 mph SSW9.7 kmh SSW 10.0 mph16.1 kmh 29.95 in1014.2 mb 0.02 in0.5 mm 0.00 in0.0 mm 0.19 in4.8 mm
02:35 PM 33.6°F0.9°C 24.9°F-3.9°C 70% 8.0 mph SE12.9 kmh SE 10.0 mph16.1 kmh 29.95 in1014.2 mb 0.02 in0.5 mm 0.00 in0.0 mm 0.19 in4.8 mm
02:40 PM 33.4°F0.8°C 25.0°F-3.9°C 71% 10.0 mph E16.1 kmh E 10.0 mph16.1 kmh 29.96 in1014.6 mb 0.01 in0.3 mm 0.00 in0.0 mm 0.19 in4.8 mm
02:45 PM 33.1°F0.6°C 24.7°F-4.1°C 71% 8.0 mph E12.9 kmh E 11.0 mph17.7 kmh 29.96 in1014.6 mb 0.01 in0.3 mm 0.00 in0.0 mm 0.19 in4.8 mm
02:50 PM 32.7°F0.4°C 24.0°F-4.4°C 70% 6.0 mph ESE9.7 kmh ESE 9.0 mph14.5 kmh 29.96 in1014.6 mb 0.01 in0.3 mm 0.00 in0.0 mm 0.19 in4.8 mm
02:55 PM 32.4°F0.2°C 23.7°F-4.6°C 70% 4.0 mph NNE6.4 kmh NNE 14.0 mph22.5 kmh 29.96 in1014.6 mb 0.01 in0.3 mm 0.00 in0.0 mm 0.19 in4.8 mm
03:00 PM 32.2°F0.1°C 23.2°F-4.9°C 69% 8.0 mph ESE12.9 kmh ESE 14.0 mph22.5 kmh 29.97 in1014.9 mb 0.00 in0.0 mm 0.00 in0.0 mm 0.19 in4.8 mm
03:05 PM 32.2°F0.1°C 23.2°F-4.9°C 69% 6.0 mph SE9.7 kmh SE 11.0 mph17.7 kmh 29.97 in1014.9 mb 0.00 in0.0 mm 0.00 in0.0 mm 0.19 in4.8 mm
03:10 PM 32.0°F0.0°C 23.0°F-5.0°C 69% 6.0 mph SE9.7 kmh SE 10.0 mph16.1 kmh 29.97 in1014.9 mb 0.00 in0.0 mm 0.00 in0.0 mm 0.19 in4.8 mm
03:15 PM 32.2°F0.1°C 22.8°F-5.1°C 68% 9.0 mph SSE14.5 kmh SSE 11.0 mph17.7 kmh 29.97 in1014.9 mb 0.00 in0.0 mm 0.00 in0.0 mm 0.19 in4.8 mm
03:20 PM 32.4°F0.2°C 22.7°F-5.2°C 67% 6.0 mph SE9.7 kmh SE 11.0 mph17.7 kmh 29.98 in1015.2 mb 0.00 in0.0 mm 0.00 in0.0 mm 0.19 in4.8 mm
03:25 PM 32.5°F0.3°C 23.1°F-4.9°C 68% 7.0 mph SE11.3 kmh SE 10.0 mph16.1 kmh 29.98 in1015.2 mb 0.00 in0.0 mm 0.00 in0.0 mm 0.19 in4.8 mm
03:30 PM 32.7°F0.4°C 23.7°F-4.6°C 69% 7.0 mph ESE11.3 kmh ESE 7.0 mph11.3 kmh 29.98 in1015.2 mb 0.00 in0.0 mm 0.00 in0.0 mm 0.19 in4.8 mm
03:35 PM 32.5°F0.3°C 23.5°F-4.7°C 69% 8.0 mph NNW12.9 kmh NNW 10.0 mph16.1 kmh 29.99 in1015.6 mb 0.00 in0.0 mm 0.00 in0.0 mm 0.19 in4.8 mm
03:40 PM 32.0°F0.0°C 23.0°F-5.0°C 69% 9.0 mph ESE14.5 kmh ESE 10.0 mph16.1 kmh 29.99 in1015.6 mb 0.00 in0.0 mm 0.00 in0.0 mm 0.19 in4.8 mm
03:45 PM 31.6°F-0.2°C 22.6°F-5.2°C 69% 8.0 mph SE12.9 kmh SE 11.0 mph17.7 kmh 30.00 in1015.9 mb 0.00 in0.0 mm 0.00 in0.0 mm 0.19 in4.8 mm
03:50 PM 31.3°F-0.4°C 22.7°F-5.2°C 70% 7.0 mph SE11.3 kmh SE 11.0 mph17.7 kmh 30.00 in1015.9 mb 0.00 in0.0 mm 0.00 in0.0 mm 0.19 in4.8 mm
03:55 PM 30.6°F-0.8°C 23.0°F-5.0°C 73% 10.0 mph SSW16.1 kmh SSW 12.0 mph19.3 kmh 30.00 in1015.9 mb 0.00 in0.0 mm 0.00 in0.0 mm 0.19 in4.8 mm
04:00 PM 30.4°F-0.9°C 21.8°F-5.7°C 70% 3.0 mph NE4.8 kmh NE 11.0 mph17.7 kmh 30.01 in1016.3 mb 0.00 in0.0 mm 0.00 in0.0 mm 0.19 in4.8 mm
04:05 PM 30.4°F-0.9°C 21.5°F-5.8°C 69% 9.0 mph ESE14.5 kmh ESE 9.0 mph14.5 kmh 30.01 in1016.3 mb 0.00 in0.0 mm 0.00 in0.0 mm 0.19 in4.8 mm
04:10 PM 30.0°F-1.1°C 21.1°F-6.1°C 69% 8.0 mph SSE12.9 kmh SSE 9.0 mph14.5 kmh 30.02 in1016.6 mb 0.00 in0.0 mm 0.00 in0.0 mm 0.19 in4.8 mm
04:15 PM 29.8°F-1.2°C 20.5°F-6.4°C 68% 8.0 mph ESE12.9 kmh ESE 11.0 mph17.7 kmh 30.02 in1016.6 mb 0.00 in0.0 mm 0.00 in0.0 mm 0.19 in4.8 mm
04:20 PM 29.7°F-1.3°C 20.1°F-6.6°C 67% 9.0 mph ESE14.5 kmh ESE 14.0 mph22.5 kmh 30.02 in1016.6 mb 0.00 in0.0 mm 0.00 in0.0 mm 0.19 in4.8 mm
04:25 PM 29.3°F-1.5°C 20.1°F-6.6°C 68% 7.0 mph SSE11.3 kmh SSE 11.0 mph17.7 kmh 30.03 in1016.9 mb 0.00 in0.0 mm 0.00 in0.0 mm 0.19 in4.8 mm
04:30 PM 29.1°F-1.6°C 20.6°F-6.3°C 70% 7.0 mph ESE11.3 kmh ESE 9.0 mph14.5 kmh 30.03 in1016.9 mb 0.00 in0.0 mm 0.00 in0.0 mm 0.19 in4.8 mm
04:35 PM 28.9°F-1.7°C 21.4°F-5.9°C 73% 8.0 mph NNE12.9 kmh NNE 10.0 mph16.1 kmh 30.03 in1016.9 mb 0.00 in0.0 mm 0.00 in0.0 mm 0.19 in4.8 mm
04:40 PM 28.9°F-1.7°C 21.0°F-6.1°C 72% 8.0 mph SE12.9 kmh SE 10.0 mph16.1 kmh 30.04 in1017.3 mb 0.00 in0.0 mm 0.00 in0.0 mm 0.19 in4.8 mm
04:45 PM 28.8°F-1.8°C 20.9°F-6.2°C 72% 12.0 mph ESE19.3 kmh ESE 14.0 mph22.5 kmh 30.04 in1017.3 mb 0.00 in0.0 mm 0.00 in0.0 mm 0.19 in4.8 mm
04:50 PM 29.1°F-1.6°C 20.6°F-6.3°C 70% 8.0 mph WNW12.9 kmh WNW 10.0 mph16.1 kmh 30.05 in1017.6 mb 0.00 in0.0 mm 0.00 in0.0 mm 0.19 in4.8 mm
04:55 PM 28.9°F-1.7°C 20.7°F-6.3°C 71% 10.0 mph S16.1 kmh S 11.0 mph17.7 kmh 30.05 in1017.6 mb 0.00 in0.0 mm 0.00 in0.0 mm 0.19 in4.8 mm
05:00 PM 28.8°F-1.8°C 20.6°F-6.3°C 71% 6.0 mph NNE9.7 kmh NNE 13.0 mph20.9 kmh 30.05 in1017.6 mb 0.00 in0.0 mm 0.00 in0.0 mm 0.19 in4.8 mm
05:05 PM 28.2°F-2.1°C 21.3°F-5.9°C 75% 6.0 mph SE9.7 kmh SE 10.0 mph16.1 kmh 30.05 in1017.6 mb 0.00 in0.0 mm 0.00 in0.0 mm 0.19 in4.8 mm
05:10 PM 27.7°F-2.4°C 22.4°F-5.3°C 80% 6.0 mph SE9.7 kmh SE 10.0 mph16.1 kmh 30.06 in1017.9 mb 0.00 in0.0 mm 0.00 in0.0 mm 0.19 in4.8 mm
05:15 PM 27.3°F-2.6°C 22.0°F-5.6°C 80% 5.0 mph SE8.0 kmh SE 7.0 mph11.3 kmh 30.06 in1017.9 mb 0.00 in0.0 mm 0.00 in0.0 mm 0.19 in4.8 mm
05:20 PM 27.3°F-2.6°C 21.1°F-6.1°C 77% 9.0 mph SSE14.5 kmh SSE 13.0 mph20.9 kmh 30.07 in1018.3 mb 0.00 in0.0 mm 0.00 in0.0 mm 0.19 in4.8 mm
05:25 PM 27.3°F-2.6°C 19.8°F-6.8°C 73% 7.0 mph ESE11.3 kmh ESE 12.0 mph19.3 kmh 30.07 in1018.3 mb 0.00 in0.0 mm 0.00 in0.0 mm 0.19 in4.8 mm
05:30 PM 27.1°F-2.7°C 19.0°F-7.2°C 71% 12.0 mph ESE19.3 kmh ESE 16.0 mph25.7 kmh 30.08 in1018.6 mb 0.00 in0.0 mm 0.00 in0.0 mm 0.19 in4.8 mm
05:35 PM 27.1°F-2.7°C 18.6°F-7.4°C 70% 12.0 mph ESE19.3 kmh ESE 14.0 mph22.5 kmh 30.08 in1018.6 mb 0.00 in0.0 mm 0.00 in0.0 mm 0.19 in4.8 mm
05:40 PM 27.0°F-2.8°C 18.5°F-7.5°C 70% 6.0 mph ESE9.7 kmh ESE 9.0 mph14.5 kmh 30.08 in1018.6 mb 0.00 in0.0 mm 0.00 in0.0 mm 0.19 in4.8 mm
05:45 PM 26.6°F-3.0°C 18.2°F-7.7°C 70% 15.0 mph ESE24.1 kmh ESE 15.0 mph24.1 kmh 30.08 in1018.6 mb 0.00 in0.0 mm 0.00 in0.0 mm 0.19 in4.8 mm
05:50 PM 26.4°F-3.1°C 17.6°F-8.0°C 69% 10.0 mph NE16.1 kmh NE 17.0 mph27.4 kmh 30.08 in1018.6 mb 0.00 in0.0 mm 0.00 in0.0 mm 0.19 in4.8 mm
05:55 PM 26.4°F-3.1°C 17.6°F-8.0°C 69% 8.0 mph SE12.9 kmh SE 15.0 mph24.1 kmh 30.10 in1019.3 mb 0.00 in0.0 mm 0.00 in0.0 mm 0.19 in4.8 mm
06:00 PM 26.2°F-3.2°C 17.1°F-8.3°C 68% 10.0 mph S16.1 kmh S 11.0 mph17.7 kmh 30.10 in1019.3 mb 0.00 in0.0 mm 0.00 in0.0 mm 0.19 in4.8 mm
06:05 PM 26.2°F-3.2°C 17.1°F-8.3°C 68% 8.0 mph W12.9 kmh W 14.0 mph22.5 kmh 30.10 in1019.3 mb 0.00 in0.0 mm 0.00 in0.0 mm 0.19 in4.8 mm
06:10 PM 26.1°F-3.3°C 17.0°F-8.3°C 68% 5.0 mph SSE8.0 kmh SSE 11.0 mph17.7 kmh 30.11 in1019.6 mb 0.00 in0.0 mm 0.00 in0.0 mm 0.19 in4.8 mm
06:15 PM 25.7°F-3.5°C 16.6°F-8.6°C 68% 9.0 mph SSW14.5 kmh SSW 10.0 mph16.1 kmh 30.11 in1019.6 mb 0.00 in0.0 mm 0.00 in0.0 mm 0.19 in4.8 mm
06:20 PM 25.5°F-3.6°C 16.1°F-8.8°C 67% 10.0 mph SSE16.1 kmh SSE 11.0 mph17.7 kmh 30.11 in1019.6 mb 0.00 in0.0 mm 0.00 in0.0 mm 0.19 in4.8 mm
06:25 PM 25.3°F-3.7°C 15.9°F-8.9°C 67% 7.0 mph W11.3 kmh W 10.0 mph16.1 kmh 30.12 in1020.0 mb 0.00 in0.0 mm 0.00 in0.0 mm 0.19 in4.8 mm
06:30 PM 25.2°F-3.8°C 16.1°F-8.8°C 68% 8.0 mph ESE12.9 kmh ESE 10.0 mph16.1 kmh 30.12 in1020.0 mb 0.00 in0.0 mm 0.00 in0.0 mm 0.19 in4.8 mm
06:35 PM 25.0°F-3.9°C 16.0°F-8.9°C 68% 7.0 mph ESE11.3 kmh ESE 11.0 mph17.7 kmh 30.12 in1020.0 mb 0.00 in0.0 mm 0.00 in0.0 mm 0.19 in4.8 mm
06:40 PM 24.8°F-4.0°C 15.8°F-9.0°C 68% 5.0 mph SSE8.0 kmh SSE 10.0 mph16.1 kmh 30.12 in1020.0 mb 0.00 in0.0 mm 0.00 in0.0 mm 0.19 in4.8 mm
06:45 PM 24.8°F-4.0°C 15.4°F-9.2°C 67% 8.0 mph ESE12.9 kmh ESE 10.0 mph16.1 kmh 30.13 in1020.3 mb 0.00 in0.0 mm 0.00 in0.0 mm 0.19 in4.8 mm
06:50 PM 24.6°F-4.1°C 15.6°F-9.1°C 68% 5.0 mph E8.0 kmh E 8.0 mph12.9 kmh 30.13 in1020.3 mb 0.00 in0.0 mm 0.00 in0.0 mm 0.19 in4.8 mm
06:55 PM 24.4°F-4.2°C 15.7°F-9.1°C 69% 4.0 mph SSE6.4 kmh SSE 7.0 mph11.3 kmh 30.14 in1020.7 mb 0.00 in0.0 mm 0.00 in0.0 mm 0.19 in4.8 mm
07:00 PM 24.3°F-4.3°C 15.3°F-9.3°C 68% 3.0 mph SSE4.8 kmh SSE 8.0 mph12.9 kmh 30.14 in1020.7 mb 0.00 in0.0 mm 0.00 in0.0 mm 0.19 in4.8 mm
07:05 PM 24.3°F-4.3°C 15.6°F-9.1°C 69% 3.0 mph SSE4.8 kmh SSE 6.0 mph9.7 kmh 30.14 in1020.7 mb 0.00 in0.0 mm 0.00 in0.0 mm 0.19 in4.8 mm
07:10 PM 24.1°F-4.4°C 15.4°F-9.2°C 69% 7.0 mph SE11.3 kmh SE 7.0 mph11.3 kmh 30.15 in1021.0 mb 0.00 in0.0 mm 0.00 in0.0 mm 0.19 in4.8 mm
07:15 PM 23.9°F-4.5°C 15.2°F-9.3°C 69% 7.0 mph SE11.3 kmh SE 8.0 mph12.9 kmh 30.15 in1021.0 mb 0.00 in0.0 mm 0.00 in0.0 mm 0.19 in4.8 mm
07:20 PM 23.7°F-4.6°C 15.0°F-9.4°C 69% 7.0 mph ESE11.3 kmh ESE 9.0 mph14.5 kmh 30.15 in1021.0 mb 0.00 in0.0 mm 0.00 in0.0 mm 0.19 in4.8 mm
07:25 PM 23.7°F-4.6°C 15.0°F-9.4°C 69% 8.0 mph ESE12.9 kmh ESE 10.0 mph16.1 kmh 30.16 in1021.3 mb 0.00 in0.0 mm 0.00 in0.0 mm 0.19 in4.8 mm
07:30 PM 23.7°F-4.6°C 15.0°F-9.4°C 69% 3.0 mph WNW4.8 kmh WNW 10.0 mph16.1 kmh 30.16 in1021.3 mb 0.00 in0.0 mm 0.00 in0.0 mm 0.19 in4.8 mm
07:35 PM 23.4°F-4.8°C 15.1°F-9.4°C 70% 8.0 mph S12.9 kmh S 8.0 mph12.9 kmh 30.17 in1021.7 mb 0.00 in0.0 mm 0.00 in0.0 mm 0.19 in4.8 mm
07:40 PM 23.2°F-4.9°C 14.9°F-9.5°C 70% 5.0 mph ESE8.0 kmh ESE 9.0 mph14.5 kmh 30.17 in1021.7 mb 0.00 in0.0 mm 0.00 in0.0 mm 0.19 in4.8 mm
07:45 PM 23.0°F-5.0°C 14.7°F-9.6°C 70% 4.0 mph SE6.4 kmh SE 8.0 mph12.9 kmh 30.17 in1021.7 mb 0.00 in0.0 mm 0.00 in0.0 mm 0.19 in4.8 mm
07:50 PM 22.8°F-5.1°C 14.5°F-9.7°C 70% 4.0 mph SSW6.4 kmh SSW 7.0 mph11.3 kmh 30.17 in1021.7 mb 0.00 in0.0 mm 0.00 in0.0 mm 0.19 in4.8 mm
07:55 PM 22.8°F-5.1°C 14.5°F-9.7°C 70% 5.0 mph SE8.0 kmh SE 9.0 mph14.5 kmh 30.17 in1021.7 mb 0.00 in0.0 mm 0.00 in0.0 mm 0.19 in4.8 mm
08:00 PM 22.6°F-5.2°C 14.6°F-9.7°C 71% 6.0 mph SSE9.7 kmh SSE 6.0 mph9.7 kmh 30.18 in1022.0 mb 0.00 in0.0 mm 0.00 in0.0 mm 0.19 in4.8 mm
08:05 PM 22.6°F-5.2°C 14.3°F-9.8°C 70% 6.0 mph ESE9.7 kmh ESE 8.0 mph12.9 kmh 30.18 in1022.0 mb 0.00 in0.0 mm 0.00 in0.0 mm 0.19 in4.8 mm
08:10 PM 22.6°F-5.2°C 14.6°F-9.7°C 71% 10.0 mph ESE16.1 kmh ESE 11.0 mph17.7 kmh 30.18 in1022.0 mb 0.00 in0.0 mm 0.00 in0.0 mm 0.19 in4.8 mm
08:15 PM 22.6°F-5.2°C 14.6°F-9.7°C 71% 3.0 mph ESE4.8 kmh ESE 6.0 mph9.7 kmh 30.18 in1022.0 mb 0.00 in0.0 mm 0.00 in0.0 mm 0.19 in4.8 mm
08:20 PM 22.6°F-5.2°C 14.6°F-9.7°C 71% 7.0 mph SSE11.3 kmh SSE 8.0 mph12.9 kmh 30.19 in1022.4 mb 0.00 in0.0 mm 0.00 in0.0 mm 0.19 in4.8 mm
08:25 PM 22.6°F-5.2°C 14.6°F-9.7°C 71% 7.0 mph S11.3 kmh S 9.0 mph14.5 kmh 30.19 in1022.4 mb 0.00 in0.0 mm 0.00 in0.0 mm 0.19 in4.8 mm
08:30 PM 22.6°F-5.2°C 15.0°F-9.4°C 72% 5.0 mph 8.0 kmh 8.0 mph12.9 kmh 30.19 in1022.4 mb 0.00 in0.0 mm 0.00 in0.0 mm 0.19 in4.8 mm
08:35 PM 22.6°F-5.2°C 15.3°F-9.3°C 73% 9.0 mph ESE14.5 kmh ESE 9.0 mph14.5 kmh 30.19 in1022.4 mb 0.00 in0.0 mm 0.00 in0.0 mm 0.19 in4.8 mm
08:40 PM 22.6°F-5.2°C 15.3°F-9.3°C 73% 10.0 mph ESE16.1 kmh ESE 10.0 mph16.1 kmh 30.20 in1022.7 mb 0.00 in0.0 mm 0.00 in0.0 mm 0.19 in4.8 mm
08:45 PM 22.5°F-5.3°C 14.9°F-9.5°C 72% 11.0 mph SE17.7 kmh SE 12.0 mph19.3 kmh 30.20 in1022.7 mb 0.00 in0.0 mm 0.00 in0.0 mm 0.19 in4.8 mm
08:50 PM 22.3°F-5.4°C 14.7°F-9.6°C 72% 9.0 mph NNW14.5 kmh NNW 12.0 mph19.3 kmh 30.20 in1022.7 mb 0.00 in0.0 mm 0.00 in0.0 mm 0.19 in4.8 mm
08:55 PM 21.9°F-5.6°C 14.0°F-10.0°C 71% 8.0 mph ESE12.9 kmh ESE 11.0 mph17.7 kmh 30.20 in1022.7 mb 0.00 in0.0 mm 0.00 in0.0 mm 0.19 in4.8 mm
09:00 PM 21.7°F-5.7°C 13.5°F-10.3°C 70% 10.0 mph E16.1 kmh E 11.0 mph17.7 kmh 30.21 in1023.0 mb 0.00 in0.0 mm 0.00 in0.0 mm 0.19 in4.8 mm
09:05 PM 21.4°F-5.9°C 13.5°F-10.3°C 71% 8.0 mph SSE12.9 kmh SSE 17.0 mph27.4 kmh 30.21 in1023.0 mb 0.00 in0.0 mm 0.00 in0.0 mm 0.19 in4.8 mm
09:10 PM 21.0°F-6.1°C 12.5°F-10.8°C 69% 11.0 mph ESE17.7 kmh ESE 13.0 mph20.9 kmh 30.21 in1023.0 mb 0.00 in0.0 mm 0.00 in0.0 mm 0.19 in4.8 mm
09:15 PM 20.7°F-6.3°C 12.2°F-11.0°C 69% 5.0 mph ESE8.0 kmh ESE 14.0 mph22.5 kmh 30.21 in1023.0 mb 0.00 in0.0 mm 0.00 in0.0 mm 0.19 in4.8 mm
09:20 PM 20.5°F-6.4°C 12.0°F-11.1°C 69% 8.0 mph E12.9 kmh E 11.0 mph17.7 kmh 30.22 in1023.4 mb 0.00 in0.0 mm 0.00 in0.0 mm 0.19 in4.8 mm
09:25 PM 20.1°F-6.6°C 11.6°F-11.3°C 69% 7.0 mph SE11.3 kmh SE 10.0 mph16.1 kmh 30.22 in1023.4 mb 0.00 in0.0 mm 0.00 in0.0 mm 0.19 in4.8 mm
09:30 PM 19.9°F-6.7°C 11.7°F-11.3°C 70% 4.0 mph SE6.4 kmh SE 8.0 mph12.9 kmh 30.23 in1023.7 mb 0.00 in0.0 mm 0.00 in0.0 mm 0.19 in4.8 mm
09:35 PM 19.9°F-6.7°C 12.4°F-10.9°C 72% 4.0 mph S6.4 kmh S 7.0 mph11.3 kmh 30.23 in1023.7 mb 0.00 in0.0 mm 0.00 in0.0 mm 0.19 in4.8 mm
09:40 PM 19.6°F-6.9°C 11.1°F-11.6°C 69% 8.0 mph W12.9 kmh W 11.0 mph17.7 kmh 30.24 in1024.0 mb 0.00 in0.0 mm 0.00 in0.0 mm 0.19 in4.8 mm
09:45 PM 19.4°F-7.0°C 10.6°F-11.9°C 68% 11.0 mph SSE17.7 kmh SSE 12.0 mph19.3 kmh 30.25 in1024.4 mb 0.00 in0.0 mm 0.00 in0.0 mm 0.19 in4.8 mm
09:50 PM 19.2°F-7.1°C 10.4°F-12.0°C 68% 5.0 mph NW8.0 kmh NW 10.0 mph16.1 kmh 30.25 in1024.4 mb 0.00 in0.0 mm 0.00 in0.0 mm 0.19 in4.8 mm
09:55 PM 19.0°F-7.2°C 10.2°F-12.1°C 68% 8.0 mph SE12.9 kmh SE 11.0 mph17.7 kmh 30.25 in1024.4 mb 0.00 in0.0 mm 0.00 in0.0 mm 0.19 in4.8 mm
10:00 PM 18.9°F-7.3°C 10.1°F-12.2°C 68% 2.0 mph WSW3.2 kmh WSW 11.0 mph17.7 kmh 30.26 in1024.7 mb 0.00 in0.0 mm 0.00 in0.0 mm 0.19 in4.8 mm
10:05 PM 18.7°F-7.4°C 10.2°F-12.1°C 69% 5.0 mph NNW8.0 kmh NNW 7.0 mph11.3 kmh 30.26 in1024.7 mb 0.00 in0.0 mm 0.00 in0.0 mm 0.19 in4.8 mm
10:10 PM 18.7°F-7.4°C 10.2°F-12.1°C 69% 5.0 mph SE8.0 kmh SE 9.0 mph14.5 kmh 30.27 in1025.1 mb 0.00 in0.0 mm 0.00 in0.0 mm 0.19 in4.8 mm
10:15 PM 18.5°F-7.5°C 10.1°F-12.2°C 69% 7.0 mph SE11.3 kmh SE 9.0 mph14.5 kmh 30.27 in1025.1 mb 0.00 in0.0 mm 0.00 in0.0 mm 0.19 in4.8 mm
10:20 PM 18.5°F-7.5°C 9.7°F-12.4°C 68% 10.0 mph WSW16.1 kmh WSW 10.0 mph16.1 kmh 30.27 in1025.1 mb 0.00 in0.0 mm 0.00 in0.0 mm 0.19 in4.8 mm
10:25 PM 18.3°F-7.6°C 9.9°F-12.3°C 69% 9.0 mph ESE14.5 kmh ESE 9.0 mph14.5 kmh 30.27 in1025.1 mb 0.00 in0.0 mm 0.00 in0.0 mm 0.19 in4.8 mm
10:30 PM 18.1°F-7.7°C 9.7°F-12.4°C 69% 9.0 mph ESE14.5 kmh ESE 12.0 mph19.3 kmh 30.28 in1025.4 mb 0.00 in0.0 mm 0.00 in0.0 mm 0.19 in4.8 mm
10:35 PM 18.1°F-7.7°C 9.7°F-12.4°C 69% 7.0 mph SSE11.3 kmh SSE 10.0 mph16.1 kmh 30.28 in1025.4 mb 0.00 in0.0 mm 0.00 in0.0 mm 0.19 in4.8 mm
10:40 PM 18.1°F-7.7°C 9.7°F-12.4°C 69% 7.0 mph ESE11.3 kmh ESE 10.0 mph16.1 kmh 30.28 in1025.4 mb 0.00 in0.0 mm 0.00 in0.0 mm 0.19 in4.8 mm
10:45 PM 18.1°F-7.7°C 9.3°F-12.6°C 68% 8.0 mph ESE12.9 kmh ESE 11.0 mph17.7 kmh 30.29 in1025.7 mb 0.00 in0.0 mm 0.00 in0.0 mm 0.19 in4.8 mm
10:50 PM 18.0°F-7.8°C 9.6°F-12.4°C 69% 4.0 mph SE6.4 kmh SE 9.0 mph14.5 kmh 30.29 in1025.7 mb 0.00 in0.0 mm 0.00 in0.0 mm 0.19 in4.8 mm
10:55 PM 17.8°F-7.9°C 9.7°F-12.4°C 70% 5.0 mph E8.0 kmh E 9.0 mph14.5 kmh 30.30 in1026.1 mb 0.00 in0.0 mm 0.00 in0.0 mm 0.19 in4.8 mm
11:00 PM 17.6°F-8.0°C 9.8°F-12.3°C 71% 4.0 mph SE6.4 kmh SE 7.0 mph11.3 kmh 30.30 in1026.1 mb 0.00 in0.0 mm 0.00 in0.0 mm 0.19 in4.8 mm
11:05 PM 17.6°F-8.0°C 9.8°F-12.3°C 71% 4.0 mph ESE6.4 kmh ESE 8.0 mph12.9 kmh 30.30 in1026.1 mb 0.00 in0.0 mm 0.00 in0.0 mm 0.19 in4.8 mm
11:10 PM 17.6°F-8.0°C 10.4°F-12.0°C 73% 4.0 mph ESE6.4 kmh ESE 6.0 mph9.7 kmh 30.31 in1026.4 mb 0.00 in0.0 mm 0.00 in0.0 mm 0.19 in4.8 mm
11:15 PM 17.6°F-8.0°C 10.4°F-12.0°C 73% 6.0 mph ESE9.7 kmh ESE 9.0 mph14.5 kmh 30.30 in1026.1 mb 0.00 in0.0 mm 0.00 in0.0 mm 0.19 in4.8 mm
11:20 PM 17.2°F-8.2°C 10.4°F-12.0°C 74% 7.0 mph ESE11.3 kmh ESE 7.0 mph11.3 kmh 30.31 in1026.4 mb 0.00 in0.0 mm 0.00 in0.0 mm 0.19 in4.8 mm
11:25 PM 17.1°F-8.3°C 10.3°F-12.1°C 74% 7.0 mph SE11.3 kmh SE 8.0 mph12.9 kmh 30.31 in1026.4 mb 0.00 in0.0 mm 0.00 in0.0 mm 0.19 in4.8 mm
11:30 PM 17.1°F-8.3°C 10.0°F-12.2°C 73% 7.0 mph ESE11.3 kmh ESE 8.0 mph12.9 kmh 30.31 in1026.4 mb 0.00 in0.0 mm 0.00 in0.0 mm 0.19 in4.8 mm
11:35 PM 16.7°F-8.5°C 9.6°F-12.4°C 73% 8.0 mph SSE12.9 kmh SSE 9.0 mph14.5 kmh 30.31 in1026.4 mb 0.00 in0.0 mm 0.00 in0.0 mm 0.19 in4.8 mm
11:40 PM 16.5°F-8.6°C 9.1°F-12.7°C 72% 7.0 mph ESE11.3 kmh ESE 9.0 mph14.5 kmh 30.31 in1026.4 mb 0.00 in0.0 mm 0.00 in0.0 mm 0.19 in4.8 mm
11:45 PM 16.3°F-8.7°C 9.2°F-12.7°C 73% 7.0 mph ESE11.3 kmh ESE 9.0 mph14.5 kmh 30.31 in1026.4 mb 0.00 in0.0 mm 0.00 in0.0 mm 0.19 in4.8 mm
11:51 PM 16.3°F-8.7°C 9.2°F-12.7°C 73% 6.0 mph ESE9.7 kmh ESE 6.0 mph9.7 kmh 30.31 in1026.4 mb 0.00 in0.0 mm 0.00 in0.0 mm 0.19 in4.8 mm
11:55 PM 15.8°F-9.0°C 8.7°F-12.9°C 73% 4.0 mph E6.4 kmh E 8.0 mph12.9 kmh 30.31 in1026.4 mb 0.00 in0.0 mm 0.00 in0.0 mm 0.19 in4.8 mm